Time;durP1;ratioP1;P1;durP2;ratioP2;P2;SDS_P1;SDS_P2;PMS_P1;PMS_P2;Temp;Humidity;BMP_temperature;BMP_pressure;BME280_temperature;BME280_humidity;BME280_pressure;Samples;Min_cycle;Max_cycle;Signal;HPM_P1;HPM_P2
2023/12/04 00:00:30;;;;;;;26.70;11.32;;;;;;;;;;10439155;22;20042;-91
2023/12/04 00:04:53;;;;;;;27.02;10.90;;;;;;;;;;10439838;22;20023;-91
2023/12/04 00:08:56;;;;;;;22.52;11.50;;;;;;;;;;10444289;22;20015;-91
2023/12/04 00:12:59;;;;;;;22.60;9.48;;;;;;;;;;10449358;22;20015;-91
2023/12/04 00:17:03;;;;;;;26.40;11.60;;;;;;;;;;10439471;22;20019;-91
2023/12/04 00:21:07;;;;;;;22.73;9.68;;;;;;;;;;10440414;22;20090;-91
2023/12/04 00:25:10;;;;;;;21.55;9.35;;;;;;;;;;10439219;22;20046;-91
2023/12/04 00:29:13;;;;;;;28.90;11.38;;;;;;;;;;10411398;22;20090;-91
2023/12/04 00:33:18;;;;;;;24.30;11.60;;;;;;;;;;10439335;22;20019;-91
2023/12/04 00:37:22;;;;;;;24.27;9.32;;;;;;;;;;10438629;22;20051;-90
2023/12/04 00:41:25;;;;;;;23.15;10.40;;;;;;;;;;10442430;22;20126;-91
2023/12/04 00:45:28;;;;;;;17.80;9.73;;;;;;;;;;10442325;22;20090;-91
2023/12/04 00:49:32;;;;;;;23.88;10.00;;;;;;;;;;10442160;22;20149;-91
2023/12/04 00:53:35;;;;;;;27.10;11.48;;;;;;;;;;10441626;22;20015;-91
2023/12/04 00:58:14;;;;;;;31.95;12.93;;;;;;;;;;10441880;22;20020;-90
2023/12/04 01:02:26;;;;;;;29.23;13.45;;;;;;;;;;10184630;23;20332;-91
2023/12/04 01:06:40;;;;;;;23.48;11.15;;;;;;;;;;10196191;22;20021;-91
2023/12/04 01:10:46;;;;;;;24.20;9.75;;;;;;;;;;10458953;22;20050;-91
2023/12/04 01:15:04;;;;;;;27.90;11.38;;;;;;;;;;10441653;22;20482;-92
2023/12/04 01:19:07;;;;;;;20.60;9.18;;;;;;;;;;10440316;22;20019;-91
2023/12/04 01:23:14;;;;;;;27.50;13.35;;;;;;;;;;10442445;22;20507;-91
2023/12/04 01:27:19;;;;;;;25.23;9.85;;;;;;;;;;10458978;22;20019;-90
2023/12/04 01:31:25;;;;;;;30.00;10.70;;;;;;;;;;10441739;22;20015;-90
2023/12/04 01:35:28;;;;;;;28.08;11.90;;;;;;;;;;10441677;22;20016;-91
2023/12/04 01:39:33;;;;;;;24.30;11.25;;;;;;;;;;10441567;22;20045;-91
2023/12/04 01:43:36;;;;;;;23.63;11.48;;;;;;;;;;10441409;22;20149;-91
2023/12/04 01:47:38;;;;;;;25.85;11.15;;;;;;;;;;10413754;22;20064;-90
2023/12/04 01:51:41;;;;;;;28.65;11.05;;;;;;;;;;10440857;22;20019;-90
2023/12/04 01:55:47;;;;;;;23.73;10.98;;;;;;;;;;10440919;22;20343;-91
2023/12/04 01:59:50;;;;;;;22.90;11.20;;;;;;;;;;10458911;22;20049;-90
2023/12/04 02:03:54;;;;;;;32.22;12.73;;;;;;;;;;10441051;22;20096;-91
2023/12/04 02:07:57;;;;;;;36.35;14.38;;;;;;;;;;10440412;22;20083;-91
2023/12/04 02:12:02;;;;;;;30.83;12.05;;;;;;;;;;10441095;22;20019;-91
2023/12/04 02:16:14;;;;;;;25.58;12.38;;;;;;;;;;10440725;22;20054;-90
2023/12/04 02:20:20;;;;;;;24.38;11.73;;;;;;;;;;10440496;22;20033;-91
2023/12/04 02:24:34;;;;;;;24.48;13.07;;;;;;;;;;10439854;22;20047;-90
2023/12/04 02:28:38;;;;;;;27.58;12.63;;;;;;;;;;10439949;22;20058;-91
2023/12/04 02:32:46;;;;;;;37.42;13.27;;;;;;;;;;10440060;22;20019;-91
2023/12/04 02:41:13;;;;;;;28.73;12.90;;;;;;;;;;10429791;22;20498;-91
2023/12/04 02:45:15;;;;;;;29.73;12.65;;;;;;;;;;10439943;22;20015;-89
2023/12/04 02:49:18;;;;;;;28.73;13.18;;;;;;;;;;10439859;22;20082;-90
2023/12/04 02:53:21;;;;;;;49.63;18.63;;;;;;;;;;10439757;22;20071;-90
2023/12/04 02:57:26;;;;;;;32.65;13.10;;;;;;;;;;10440429;22;20047;-90
2023/12/04 03:01:28;;;;;;;34.15;15.82;;;;;;;;;;10440811;22;20026;-92
2023/12/04 03:05:31;;;;;;;32.10;12.88;;;;;;;;;;10440030;22;20015;-92
2023/12/04 03:09:34;;;;;;;37.92;15.50;;;;;;;;;;10440332;22;20023;-92
2023/12/04 03:13:39;;;;;;;38.70;15.52;;;;;;;;;;10440389;22;20020;-92
2023/12/04 03:17:42;;;;;;;26.20;14.13;;;;;;;;;;10440459;22;20020;-93
2023/12/04 03:21:45;;;;;;;27.23;12.23;;;;;;;;;;10412491;22;20023;-93
2023/12/04 03:25:48;;;;;;;30.35;12.95;;;;;;;;;;10412319;22;20015;-93
2023/12/04 03:29:53;;;;;;;32.67;14.57;;;;;;;;;;10439713;22;20058;-93
2023/12/04 03:33:56;;;;;;;25.75;9.52;;;;;;;;;;10440734;22;20038;-92
2023/12/04 03:37:59;;;;;;;16.58;8.25;;;;;;;;;;10412931;22;20015;-92
2023/12/04 03:42:01;;;;;;;28.00;11.93;;;;;;;;;;10413066;22;20019;-91
2023/12/04 03:46:06;;;;;;;26.98;11.05;;;;;;;;;;10439577;22;20057;-91
2023/12/04 03:50:11;;;;;;;28.42;12.68;;;;;;;;;;10440003;22;20019;-92
2023/12/04 03:54:16;;;;;;;30.60;12.80;;;;;;;;;;10412525;22;20019;-92
2023/12/04 03:58:18;;;;;;;26.90;12.38;;;;;;;;;;10439229;22;20042;-91
2023/12/04 04:02:23;;;;;;;24.85;11.10;;;;;;;;;;10439146;22;20068;-91
2023/12/04 04:06:26;;;;;;;32.08;12.93;;;;;;;;;;10439591;22;20367;-91
2023/12/04 04:10:29;;;;;;;25.60;9.98;;;;;;;;;;10412058;22;20464;-91
2023/12/04 04:14:46;;;;;;;21.85;10.90;;;;;;;;;;10436653;22;20051;-92
2023/12/04 04:18:51;;;;;;;21.55;11.00;;;;;;;;;;10442076;22;20065;-92
2023/12/04 04:22:54;;;;;;;27.05;11.10;;;;;;;;;;10442988;22;20466;-92
2023/12/04 04:26:57;;;;;;;28.80;12.27;;;;;;;;;;10443270;22;20541;-91
2023/12/04 04:31:00;;;;;;;13.20;6.97;;;;;;;;;;10442591;22;20030;-92
2023/12/04 04:35:05;;;;;;;32.03;15.18;;;;;;;;;;10441730;22;20015;-91
2023/12/04 04:39:08;;;;;;;41.92;19.73;;;;;;;;;;10442773;22;20317;-92
2023/12/04 04:43:11;;;;;;;33.92;15.23;;;;;;;;;;10443065;22;20450;-91
2023/12/04 04:47:14;;;;;;;43.42;18.20;;;;;;;;;;10443091;22;20019;-91
2023/12/04 04:51:19;;;;;;;27.38;10.90;;;;;;;;;;10442782;22;20022;-91
2023/12/04 04:55:22;;;;;;;31.00;12.48;;;;;;;;;;10442559;22;20107;-91
2023/12/04 04:59:27;;;;;;;15.60;8.10;;;;;;;;;;10443152;22;20019;-92
2023/12/04 05:03:30;;;;;;;25.77;10.98;;;;;;;;;;10444324;22;20019;-89
2023/12/04 05:07:34;;;;;;;20.83;9.27;;;;;;;;;;10444234;22;20022;-90
2023/12/04 05:11:37;;;;;;;23.48;9.73;;;;;;;;;;10414354;22;20019;-90
2023/12/04 05:15:40;;;;;;;27.30;12.32;;;;;;;;;;10441508;22;20015;-90
2023/12/04 05:19:43;;;;;;;28.70;11.90;;;;;;;;;;10443166;22;20019;-90
2023/12/04 05:23:47;;;;;;;24.48;8.00;;;;;;;;;;10443886;22;20120;-90
2023/12/04 05:27:50;;;;;;;14.40;7.55;;;;;;;;;;10440741;22;20019;-90
2023/12/04 05:31:53;;;;;;;26.83;11.60;;;;;;;;;;10413725;22;20401;-91
2023/12/04 05:35:56;;;;;;;34.95;15.27;;;;;;;;;;10442038;22;20015;-90
2023/12/04 05:40:01;;;;;;;24.52;11.38;;;;;;;;;;10441590;22;20027;-91
2023/12/04 05:44:04;;;;;;;36.75;13.32;;;;;;;;;;10441687;22;20024;-91
2023/12/04 05:52:37;;;;;;;20.65;9.23;;;;;;;;;;10410007;22;20011;-90
2023/12/04 05:56:42;;;;;;;22.40;9.82;;;;;;;;;;10440452;22;20094;-90
2023/12/04 06:00:45;;;;;;;42.38;15.25;;;;;;;;;;10457752;22;20019;-91
2023/12/04 06:04:48;;;;;;;46.78;20.08;;;;;;;;;;10439810;22;20064;-91
2023/12/04 06:08:51;;;;;;;50.25;21.42;;;;;;;;;;10439727;22;20466;-91
2023/12/04 06:12:55;;;;;;;20.40;10.38;;;;;;;;;;10439726;22;20022;-90
2023/12/04 06:16:58;;;;;;;25.58;10.95;;;;;;;;;;10440094;22;20015;-90
2023/12/04 06:21:05;;;;;;;29.33;12.50;;;;;;;;;;10439299;22;20023;-91
2023/12/04 06:25:30;;;;;;;27.60;10.43;;;;;;;;;;10440293;22;20030;-91
2023/12/04 06:29:35;;;;;;;28.67;12.00;;;;;;;;;;10440845;22;20019;-91
2023/12/04 06:33:39;;;;;;;22.55;10.57;;;;;;;;;;10457973;22;20011;-90
2023/12/04 06:37:44;;;;;;;25.25;11.32;;;;;;;;;;10439468;22;20019;-91
2023/12/04 06:41:54;;;;;;;20.98;9.02;;;;;;;;;;10441391;22;20068;-90
2023/12/04 06:50:35;;;;;;;18.75;7.57;;;;;;;;;;10411129;22;20451;-91
2023/12/04 06:54:41;;;;;;;24.90;10.98;;;;;;;;;;10441178;22;20015;-91
2023/12/04 06:58:44;;;;;;;25.45;9.52;;;;;;;;;;10440164;22;20102;-92
2023/12/04 07:02:55;;;;;;;18.85;8.77;;;;;;;;;;10439630;22;20312;-91
2023/12/04 07:07:19;;;;;;;18.90;8.52;;;;;;;;;;10440383;22;20023;-90
2023/12/04 07:11:22;;;;;;;21.55;10.77;;;;;;;;;;10439520;22;20023;-85
2023/12/04 07:15:25;;;;;;;27.10;12.77;;;;;;;;;;10438283;22;20015;-90
2023/12/04 07:19:30;;;;;;;24.05;12.00;;;;;;;;;;10439376;22;20019;-92
2023/12/04 07:23:34;;;;;;;21.08;9.38;;;;;;;;;;10456267;22;20023;-90
2023/12/04 07:27:38;;;;;;;20.13;9.45;;;;;;;;;;10439413;22;20023;-91
2023/12/04 07:31:42;;;;;;;22.45;9.68;;;;;;;;;;10439916;22;20090;-90
2023/12/04 07:35:48;;;;;;;18.90;8.75;;;;;;;;;;10440168;22;20019;-91
2023/12/04 07:39:51;;;;;;;20.75;9.82;;;;;;;;;;10439606;22;20019;-92
2023/12/04 07:43:55;;;;;;;34.08;15.73;;;;;;;;;;10412193;22;20012;-90
2023/12/04 07:47:58;;;;;;;36.13;16.23;;;;;;;;;;10438206;22;20030;-91
2023/12/04 07:52:03;;;;;;;22.73;12.80;;;;;;;;;;10438610;22;20023;-91
2023/12/04 07:56:10;;;;;;;24.80;11.88;;;;;;;;;;10438972;22;20047;-91
2023/12/04 08:00:17;;;;;;;43.33;22.63;;;;;;;;;;10439084;22;20039;-92
2023/12/04 08:04:20;;;;;;;43.33;19.50;;;;;;;;;;10439205;22;20023;-92
2023/12/04 08:08:25;;;;;;;44.15;19.15;;;;;;;;;;10439201;22;20031;-92
2023/12/04 08:12:28;;;;;;;125.57;47.80;;;;;;;;;;10447279;22;20397;-91
2023/12/04 08:16:31;;;;;;;55.17;27.67;;;;;;;;;;10444568;22;20031;-90
2023/12/04 08:20:34;;;;;;;24.55;11.63;;;;;;;;;;10438169;22;20020;-91
2023/12/04 08:24:39;;;;;;;36.40;12.73;;;;;;;;;;10438027;22;20053;-90
2023/12/04 08:28:42;;;;;;;27.00;9.75;;;;;;;;;;10410703;22;20046;-90
2023/12/04 08:32:45;;;;;;;30.10;11.98;;;;;;;;;;10438097;22;20076;-91
2023/12/04 08:36:48;;;;;;;38.13;18.13;;;;;;;;;;10437981;22;20100;-91
2023/12/04 08:40:52;;;;;;;39.40;12.85;;;;;;;;;;10437591;22;20026;-90
2023/12/04 08:44:55;;;;;;;30.00;11.98;;;;;;;;;;10438120;22;20020;-92
2023/12/04 08:48:58;;;;;;;31.65;12.20;;;;;;;;;;10437902;22;20023;-92
2023/12/04 08:53:01;;;;;;;23.88;10.32;;;;;;;;;;10436469;22;20019;-93
2023/12/04 08:57:06;;;;;;;26.60;10.27;;;;;;;;;;10441999;22;20383;-94
2023/12/04 09:01:09;;;;;;;18.70;9.60;;;;;;;;;;10412570;22;20054;-90
2023/12/04 09:05:12;;;;;;;39.25;13.57;;;;;;;;;;10441644;22;20077;-90
2023/12/04 09:09:16;;;;;;;39.80;14.30;;;;;;;;;;10442972;22;20081;-91
2023/12/04 09:13:21;;;;;;;23.40;9.40;;;;;;;;;;10443392;22;20050;-88
2023/12/04 09:17:24;;;;;;;22.35;10.45;;;;;;;;;;10441148;22;20015;-91
2023/12/04 09:21:27;;;;;;;24.10;10.43;;;;;;;;;;10441639;22;20034;-88
2023/12/04 09:25:31;;;;;;;31.33;15.85;;;;;;;;;;10414453;22;20022;-88
2023/12/04 09:29:35;;;;;;;34.85;16.75;;;;;;;;;;10414311;22;20023;-90
2023/12/04 09:33:38;;;;;;;37.17;13.60;;;;;;;;;;10441452;22;20340;-88
2023/12/04 09:37:41;;;;;;;46.15;14.73;;;;;;;;;;10441284;22;20019;-89
2023/12/04 09:41:46;;;;;;;25.17;13.13;;;;;;;;;;10442503;22;20047;-88
2023/12/04 09:45:51;;;;;;;36.47;14.73;;;;;;;;;;10458182;22;20015;-92
2023/12/04 09:49:55;;;;;;;38.95;17.52;;;;;;;;;;10413834;22;20026;-92
2023/12/04 09:54:02;;;;;;;25.13;11.10;;;;;;;;;;10440784;22;20148;-91
2023/12/04 09:58:06;;;;;;;20.77;10.10;;;;;;;;;;10413898;22;20076;-92
2023/12/04 10:02:11;;;;;;;24.17;9.95;;;;;;;;;;10441177;22;20444;-90
2023/12/04 10:06:18;;;;;;;23.38;9.70;;;;;;;;;;10440084;22;20031;-91
2023/12/04 10:10:21;;;;;;;24.08;11.70;;;;;;;;;;10440449;22;20050;-91
2023/12/04 10:14:25;;;;;;;30.60;14.23;;;;;;;;;;10440319;22;20138;-90
2023/12/04 10:18:31;;;;;;;22.98;10.75;;;;;;;;;;10439997;22;20086;-90
2023/12/04 10:22:34;;;;;;;35.92;13.10;;;;;;;;;;10457091;22;20015;-90
2023/12/04 10:26:37;;;;;;;27.17;12.80;;;;;;;;;;10439854;22;20022;-90
2023/12/04 10:30:40;;;;;;;27.65;11.32;;;;;;;;;;10439994;22;20011;-90
2023/12/04 10:34:45;;;;;;;18.63;9.52;;;;;;;;;;10439481;22;20502;-90
2023/12/04 10:38:58;;;;;;;20.38;9.45;;;;;;;;;;10438406;22;20019;-92
2023/12/04 10:43:17;;;;;;;20.38;11.27;;;;;;;;;;10464861;22;20448;-92
2023/12/04 10:47:22;;;;;;;24.73;12.23;;;;;;;;;;10464135;22;20019;-92
2023/12/04 10:51:27;;;;;;;26.60;12.25;;;;;;;;;;10440081;22;20103;-91
2023/12/04 10:55:31;;;;;;;26.73;11.43;;;;;;;;;;10456799;22;20026;-91
2023/12/04 10:59:39;;;;;;;18.00;7.82;;;;;;;;;;10439662;22;20068;-92
2023/12/04 11:03:45;;;;;;;16.50;9.10;;;;;;;;;;10457181;22;20526;-92
2023/12/04 11:07:54;;;;;;;19.90;9.43;;;;;;;;;;10450082;22;20031;-91
2023/12/04 11:12:04;;;;;;;20.65;9.88;;;;;;;;;;10456415;22;20094;-91
2023/12/04 11:16:13;;;;;;;24.88;11.68;;;;;;;;;;10456431;22;20071;-87
2023/12/04 11:20:20;;;;;;;34.42;12.73;;;;;;;;;;10456262;22;20447;-90
2023/12/04 11:24:25;;;;;;;46.40;15.98;;;;;;;;;;10456372;22;20015;-89
2023/12/04 11:28:29;;;;;;;28.80;12.30;;;;;;;;;;10456540;22;20015;-89
2023/12/04 11:32:32;;;;;;;53.70;21.13;;;;;;;;;;10439285;22;20343;-89
2023/12/04 11:36:35;;;;;;;48.72;21.17;;;;;;;;;;10438512;22;20027;-85
2023/12/04 11:40:42;;;;;;;13.60;7.13;;;;;;;;;;10438994;22;20015;-86
2023/12/04 11:44:45;;;;;;;70.45;16.20;;;;;;;;;;10455553;22;20662;-89
2023/12/04 11:48:49;;;;;;;45.05;12.05;;;;;;;;;;10438789;22;20020;-89
2023/12/04 11:52:52;;;;;;;36.50;16.48;;;;;;;;;;10438633;22;20019;-89
2023/12/04 11:57:24;;;;;;;20.85;8.88;;;;;;;;;;10438562;22;20043;-87
2023/12/04 12:01:27;;;;;;;25.45;8.48;;;;;;;;;;10438967;22;20030;-91
2023/12/04 12:05:33;;;;;;;29.33;10.98;;;;;;;;;;10440191;22;20312;-91
2023/12/04 12:09:36;;;;;;;26.20;14.15;;;;;;;;;;10444346;22;20023;-90
2023/12/04 12:13:46;;;;;;;64.95;20.85;;;;;;;;;;10443238;22;20019;-91
2023/12/04 12:17:50;;;;;;;107.65;42.55;;;;;;;;;;10417591;22;20015;-93
2023/12/04 12:21:53;;;;;;;88.50;26.52;;;;;;;;;;10443975;22;20057;-91
2023/12/04 12:25:57;;;;;;;25.23;9.38;;;;;;;;;;10444081;22;20063;-92
2023/12/04 12:30:04;;;;;;;26.30;9.85;;;;;;;;;;10447103;22;20023;-91
2023/12/04 12:34:07;;;;;;;24.30;9.70;;;;;;;;;;10460528;22;20022;-91
2023/12/04 12:38:11;;;;;;;25.55;10.40;;;;;;;;;;10442950;22;20019;-92
2023/12/04 12:42:22;;;;;;;29.25;11.77;;;;;;;;;;10443162;22;20015;-92
2023/12/04 12:46:27;;;;;;;23.63;9.65;;;;;;;;;;10443065;22;20023;-91
2023/12/04 12:50:33;;;;;;;18.58;8.52;;;;;;;;;;10415509;22;20341;-93
2023/12/04 12:54:38;;;;;;;22.50;8.85;;;;;;;;;;10442715;22;20351;-88
2023/12/04 12:58:42;;;;;;;18.63;9.07;;;;;;;;;;10442077;22;20023;-89
2023/12/04 13:02:48;;;;;;;24.20;10.57;;;;;;;;;;10444699;22;20034;-92
2023/12/04 13:06:50;;;;;;;19.08;8.00;;;;;;;;;;10415154;22;20034;-88
2023/12/04 13:10:54;;;;;;;18.60;8.77;;;;;;;;;;10443416;22;20019;-92
2023/12/04 13:14:57;;;;;;;26.15;11.00;;;;;;;;;;10445448;22;20016;-91
2023/12/04 13:19:04;;;;;;;97.20;31.30;;;;;;;;;;10445737;22;20390;-90
2023/12/04 13:23:11;;;;;;;40.15;20.30;;;;;;;;;;10448733;22;20497;-92
2023/12/04 13:27:16;;;;;;;39.85;12.32;;;;;;;;;;10451940;22;20083;-87
2023/12/04 13:31:20;;;;;;;23.17;10.25;;;;;;;;;;10468073;22;20019;-86
2023/12/04 13:35:27;;;;;;;27.15;11.38;;;;;;;;;;10468958;22;20035;-92
2023/12/04 13:39:49;;;;;;;50.47;16.90;;;;;;;;;;10463718;22;20023;-91
2023/12/04 13:44:05;;;;;;;28.30;12.05;;;;;;;;;;10441320;22;20454;-86
2023/12/04 13:48:07;;;;;;;;;;;;;;;;;;10440780;22;20015;-91
2023/12/04 13:52:12;;;;;;;16.83;9.45;;;;;;;;;;10440225;22;20228;-89
2023/12/04 13:56:27;;;;;;;24.20;10.90;;;;;;;;;;10413031;22;20015;-89
2023/12/04 14:00:31;;;;;;;22.17;11.25;;;;;;;;;;10458001;22;20428;-90
2023/12/04 14:04:33;;;;;;;25.27;11.73;;;;;;;;;;10440441;22;20385;-89
2023/12/04 14:08:38;;;;;;;32.60;12.52;;;;;;;;;;10439867;22;20019;-89
2023/12/04 14:12:41;;;;;;;29.73;13.32;;;;;;;;;;10440202;22;20019;-89
2023/12/04 14:16:46;;;;;;;27.40;11.30;;;;;;;;;;10439903;22;20635;-89
2023/12/04 14:20:49;;;;;;;25.27;12.13;;;;;;;;;;10456941;22;20462;-89
2023/12/04 14:24:54;;;;;;;35.78;13.65;;;;;;;;;;10440116;22;20090;-89
2023/12/04 14:29:01;;;;;;;45.47;18.15;;;;;;;;;;10439276;22;20015;-89
2023/12/04 14:33:04;;;;;;;45.80;18.52;;;;;;;;;;10452995;22;20023;-89
2023/12/04 14:37:08;;;;;;;60.33;25.90;;;;;;;;;;10455085;22;20023;-90
2023/12/04 14:41:13;;;;;;;35.45;15.73;;;;;;;;;;10446669;22;20023;-89
2023/12/04 14:45:16;;;;;;;35.70;15.45;;;;;;;;;;10439900;22;20076;-90
2023/12/04 14:49:20;;;;;;;47.80;23.23;;;;;;;;;;10440396;22;20347;-90
2023/12/04 14:53:29;;;;;;;55.50;23.92;;;;;;;;;;10443506;22;20124;-90
2023/12/04 14:57:57;;;;;;;68.38;28.70;;;;;;;;;;10456851;22;20041;-90
2023/12/04 15:02:45;;;;;;;152.88;56.78;;;;;;;;;;10456535;22;20019;-89
2023/12/04 15:07:21;;;;;;;118.88;44.58;;;;;;;;;;10439386;22;20019;-89
2023/12/04 15:20:31;;;;;;;120.88;42.25;;;;;;;;;;8526794;27;20043;-91
2023/12/04 15:24:37;;;;;;;106.63;39.10;;;;;;;;;;8526654;27;20064;-91
2023/12/04 15:28:40;;;;;;;128.98;47.63;;;;;;;;;;8526749;27;20600;-91
2023/12/04 15:32:45;;;;;;;159.95;56.78;;;;;;;;;;8526538;27;20440;-92
2023/12/04 15:36:51;;;;;;;107.07;44.83;;;;;;;;;;8527028;27;20043;-90
2023/12/04 15:40:54;;;;;;;105.28;40.55;;;;;;;;;;8526783;27;20071;-91
2023/12/04 15:44:58;;;;;;;97.28;35.97;;;;;;;;;;8527346;27;20498;-90
2023/12/04 15:49:03;;;;;;;102.72;36.72;;;;;;;;;;8526285;27;20050;-90
2023/12/04 15:53:08;;;;;;;79.50;29.05;;;;;;;;;;8526101;27;20043;-91
2023/12/04 15:57:11;;;;;;;31.85;14.88;;;;;;;;;;8525598;27;20509;-91
2023/12/04 16:01:14;;;;;;;43.03;17.27;;;;;;;;;;8525383;27;20444;-91
2023/12/04 16:05:19;;;;;;;53.22;22.17;;;;;;;;;;8525662;27;20031;-91
2023/12/04 16:09:22;;;;;;;44.28;19.38;;;;;;;;;;8532198;27;20043;-90
2023/12/04 16:13:26;;;;;;;41.45;17.42;;;;;;;;;;8533248;27;20059;-89
2023/12/04 16:17:44;;;;;;;43.33;21.90;;;;;;;;;;8526757;27;20102;-90
2023/12/04 16:21:50;;;;;;;35.97;17.45;;;;;;;;;;8528401;27;20043;-88
2023/12/04 16:25:55;;;;;;;49.97;19.88;;;;;;;;;;8497367;27;20043;-90
2023/12/04 16:30:08;;;;;;;74.63;28.75;;;;;;;;;;8484426;27;20133;-90
2023/12/04 16:34:11;;;;;;;121.70;41.13;;;;;;;;;;8501607;27;20051;-90
2023/12/04 16:38:25;;;;;;;;;;;;;;;;;;;;;
2023/12/04 16:42:32;;;;;;;84.78;30.30;;;;;;;;;;8504521;27;20511;-91
2023/12/04 16:46:34;;;;;;;376.40;103.75;;;;;;;;;;8483306;27;20443;-91
2023/12/04 16:50:47;;;;;;;66.55;26.30;;;;;;;;;;8501095;27;20070;-91
2023/12/04 16:55:19;;;;;;;65.50;26.67;;;;;;;;;;8478329;27;20043;-91
2023/12/04 16:59:22;;;;;;;56.10;24.37;;;;;;;;;;8500952;27;20046;-91
2023/12/04 17:03:29;;;;;;;63.00;23.38;;;;;;;;;;8503389;27;20517;-89
2023/12/04 17:07:33;;;;;;;214.85;65.18;;;;;;;;;;8501497;27;20047;-91
2023/12/04 17:11:41;;;;;;;56.97;24.73;;;;;;;;;;8483220;27;20134;-92
2023/12/04 17:15:45;;;;;;;43.78;19.60;;;;;;;;;;8500817;27;20055;-92
2023/12/04 17:19:48;;;;;;;66.55;26.65;;;;;;;;;;8482623;27;20054;-92
2023/12/04 17:23:52;;;;;;;51.00;20.33;;;;;;;;;;8500954;27;20043;-92
2023/12/04 17:27:59;;;;;;;66.88;22.50;;;;;;;;;;8500800;27;20127;-92
2023/12/04 17:32:02;;;;;;;52.05;24.25;;;;;;;;;;8500444;27;20426;-92
2023/12/04 17:36:06;;;;;;;51.85;20.88;;;;;;;;;;8499635;27;20046;-92
2023/12/04 17:40:10;;;;;;;52.42;20.50;;;;;;;;;;8501009;27;20054;-92
2023/12/04 17:44:16;;;;;;;49.30;19.15;;;;;;;;;;8500412;27;20720;-92
2023/12/04 17:48:19;;;;;;;51.65;20.40;;;;;;;;;;8500514;27;20402;-92
2023/12/04 17:52:22;;;;;;;45.67;20.52;;;;;;;;;;8500013;27;20074;-92
2023/12/04 17:56:26;;;;;;;48.67;22.13;;;;;;;;;;8499390;27;20039;-91
2023/12/04 18:00:30;;;;;;;49.40;19.58;;;;;;;;;;8499060;27;20721;-91
2023/12/04 18:04:35;;;;;;;45.35;19.40;;;;;;;;;;8499057;27;20047;-91
2023/12/04 18:08:42;;;;;;;65.90;27.85;;;;;;;;;;8498814;27;20157;-91
2023/12/04 18:12:46;;;;;;;57.70;23.38;;;;;;;;;;8498514;27;20035;-91
2023/12/04 18:16:51;;;;;;;63.17;24.52;;;;;;;;;;8498710;27;20062;-91
2023/12/04 18:20:55;;;;;;;80.60;30.83;;;;;;;;;;8498644;27;20448;-92
2023/12/04 18:24:58;;;;;;;61.85;25.35;;;;;;;;;;8498717;27;20099;-93
2023/12/04 18:29:02;;;;;;;54.90;23.77;;;;;;;;;;8499016;27;20047;-92
2023/12/04 18:33:08;;;;;;;55.95;25.80;;;;;;;;;;8498398;27;20050;-92
2023/12/04 18:37:21;;;;;;;52.55;20.77;;;;;;;;;;8498240;27;20051;-91
2023/12/04 18:41:31;;;;;;;57.47;23.83;;;;;;;;;;8498195;27;20043;-93
2023/12/04 18:45:35;;;;;;;41.25;17.67;;;;;;;;;;8498053;27;20553;-92
2023/12/04 18:49:41;;;;;;;36.47;17.30;;;;;;;;;;8497609;27;20035;-91
2023/12/04 18:53:45;;;;;;;36.70;17.63;;;;;;;;;;8498272;27;20072;-91
2023/12/04 18:57:48;;;;;;;50.00;23.83;;;;;;;;;;8497590;27;20040;-91
2023/12/04 19:01:51;;;;;;;42.25;18.92;;;;;;;;;;8497613;27;20533;-91
2023/12/04 19:05:57;;;;;;;45.30;20.33;;;;;;;;;;8497251;27;20133;-92
2023/12/04 19:10:00;;;;;;;42.72;17.33;;;;;;;;;;8498241;27;20042;-91
2023/12/04 19:14:04;;;;;;;41.83;19.73;;;;;;;;;;8496925;28;20047;-91
2023/12/04 19:18:07;;;;;;;67.65;26.83;;;;;;;;;;8479707;28;20059;-91
2023/12/04 19:22:12;;;;;;;30.80;17.30;;;;;;;;;;8497127;28;20137;-92
2023/12/04 19:26:16;;;;;;;44.67;17.60;;;;;;;;;;8498016;28;20069;-92
2023/12/04 19:30:20;;;;;;;142.85;47.10;;;;;;;;;;8496905;28;20067;-91
2023/12/04 19:34:24;;;;;;;109.80;29.23;;;;;;;;;;8496925;28;20043;-92
2023/12/04 19:38:29;;;;;;;131.82;34.90;;;;;;;;;;8496942;28;20486;-91
2023/12/04 19:42:36;;;;;;;253.90;78.20;;;;;;;;;;8496822;28;20047;-92
2023/12/04 19:46:42;;;;;;;87.68;29.27;;;;;;;;;;8496814;28;20126;-92
2023/12/04 19:50:49;;;;;;;121.63;36.92;;;;;;;;;;8496668;28;20092;-92
2023/12/04 19:54:54;;;;;;;339.40;88.05;;;;;;;;;;8496382;28;20146;-93
2023/12/04 19:58:58;;;;;;;111.70;30.88;;;;;;;;;;8496605;27;20045;-91
2023/12/04 20:03:04;;;;;;;49.08;17.77;;;;;;;;;;8503125;27;20047;-92
2023/12/04 20:07:08;;;;;;;76.40;28.75;;;;;;;;;;8503002;27;20131;-92
2023/12/04 20:11:16;;;;;;;64.88;23.00;;;;;;;;;;8502955;27;20047;-92
2023/12/04 20:15:24;;;;;;;303.45;85.10;;;;;;;;;;8513238;27;20055;-92
2023/12/04 20:19:28;;;;;;;169.10;50.70;;;;;;;;;;8502367;27;20047;-91
2023/12/04 20:23:34;;;;;;;72.03;26.65;;;;;;;;;;8502556;27;20410;-91
2023/12/04 20:27:41;;;;;;;61.83;20.98;;;;;;;;;;8502623;27;20039;-91
2023/12/04 20:31:46;;;;;;;66.43;27.80;;;;;;;;;;8484234;27;20054;-92
2023/12/04 20:35:51;;;;;;;87.18;34.53;;;;;;;;;;8502369;27;20050;-91
2023/12/04 20:39:55;;;;;;;94.82;35.10;;;;;;;;;;8502042;27;20070;-89
2023/12/04 20:44:00;;;;;;;85.95;34.58;;;;;;;;;;8501715;27;20376;-90
2023/12/04 20:48:05;;;;;;;44.17;19.60;;;;;;;;;;8483533;27;20059;-90
2023/12/04 20:52:20;;;;;;;60.45;20.15;;;;;;;;;;8501523;27;20100;-90
2023/12/04 20:56:24;;;;;;;129.50;45.95;;;;;;;;;;8498811;27;20486;-90
2023/12/04 21:00:30;;;;;;;279.23;83.15;;;;;;;;;;8502010;27;20051;-91
2023/12/04 21:04:33;;;;;;;51.83;22.85;;;;;;;;;;8501091;27;20398;-91
2023/12/04 21:08:36;;;;;;;61.25;20.08;;;;;;;;;;8501566;27;20112;-91
2023/12/04 21:12:39;;;;;;;36.55;16.25;;;;;;;;;;8501033;27;20050;-91
2023/12/04 21:16:45;;;;;;;37.97;17.67;;;;;;;;;;8500948;27;20061;-90
2023/12/04 21:20:48;;;;;;;49.67;20.13;;;;;;;;;;8500563;27;20425;-91
2023/12/04 21:24:52;;;;;;;53.80;20.25;;;;;;;;;;8505792;27;20039;-90
2023/12/04 21:28:57;;;;;;;169.15;47.55;;;;;;;;;;8541413;27;20055;-91
2023/12/04 21:33:02;;;;;;;126.18;35.72;;;;;;;;;;8516680;27;20482;-91
2023/12/04 21:37:05;;;;;;;94.47;28.25;;;;;;;;;;8501772;27;20402;-91
2023/12/04 21:41:08;;;;;;;200.50;66.55;;;;;;;;;;8500859;27;20043;-91
2023/12/04 21:45:11;;;;;;;231.90;64.47;;;;;;;;;;8499729;27;20430;-91
2023/12/04 21:49:16;;;;;;;122.32;38.17;;;;;;;;;;8499505;27;20043;-90
2023/12/04 21:53:19;;;;;;;50.13;21.60;;;;;;;;;;8499528;27;20122;-91
2023/12/04 21:57:22;;;;;;;83.50;29.63;;;;;;;;;;8499313;27;20047;-91
2023/12/04 22:01:26;;;;;;;60.55;22.60;;;;;;;;;;8499176;27;20047;-91
2023/12/04 22:05:30;;;;;;;39.25;19.35;;;;;;;;;;8499058;27;20126;-91
2023/12/04 22:09:33;;;;;;;36.35;18.50;;;;;;;;;;8498751;27;20130;-90
2023/12/04 22:13:36;;;;;;;223.70;87.03;;;;;;;;;;8498463;27;20055;-90
2023/12/04 22:17:40;;;;;;;48.80;19.88;;;;;;;;;;8498565;27;20070;-92
2023/12/04 22:21:45;;;;;;;45.97;19.40;;;;;;;;;;8498236;27;20486;-90
2023/12/04 22:25:48;;;;;;;23.92;12.68;;;;;;;;;;8498351;27;20078;-90
2023/12/04 22:29:51;;;;;;;77.40;25.63;;;;;;;;;;8498149;27;20051;-91
2023/12/04 22:33:54;;;;;;;45.83;17.67;;;;;;;;;;8497894;27;20127;-91
2023/12/04 22:37:59;;;;;;;29.45;14.45;;;;;;;;;;8499445;27;20051;-91
2023/12/04 22:42:03;;;;;;;33.22;13.85;;;;;;;;;;8498098;27;20391;-91
2023/12/04 22:46:08;;;;;;;32.72;14.77;;;;;;;;;;8497870;27;20047;-91
2023/12/04 22:50:12;;;;;;;35.83;16.38;;;;;;;;;;8497888;27;20070;-90
2023/12/04 22:54:16;;;;;;;41.58;15.07;;;;;;;;;;8497571;27;20050;-91
2023/12/04 22:58:19;;;;;;;34.15;14.15;;;;;;;;;;8497808;27;20043;-90
2023/12/04 23:02:23;;;;;;;42.67;16.77;;;;;;;;;;8497821;27;20399;-90
2023/12/04 23:06:27;;;;;;;33.83;13.57;;;;;;;;;;8497408;27;20047;-90
2023/12/04 23:10:31;;;;;;;38.33;13.40;;;;;;;;;;8497506;27;20188;-91
2023/12/04 23:14:34;;;;;;;55.55;21.20;;;;;;;;;;8497128;28;20120;-90
2023/12/04 23:18:37;;;;;;;24.27;13.68;;;;;;;;;;8497136;28;20043;-91
2023/12/04 23:22:40;;;;;;;31.63;14.80;;;;;;;;;;8497092;28;20050;-90
2023/12/04 23:26:47;;;;;;;38.83;16.27;;;;;;;;;;8497052;28;20395;-90
2023/12/04 23:30:50;;;;;;;41.40;18.15;;;;;;;;;;8496987;28;20071;-90
2023/12/04 23:34:53;;;;;;;37.58;15.90;;;;;;;;;;8498688;27;20071;-90
2023/12/04 23:38:56;;;;;;;31.70;14.80;;;;;;;;;;8503940;27;20043;-91
2023/12/04 23:43:00;;;;;;;30.77;13.68;;;;;;;;;;8503692;27;20131;-90
2023/12/04 23:47:03;;;;;;;30.60;12.55;;;;;;;;;;8503570;27;20073;-91
2023/12/04 23:51:07;;;;;;;27.80;11.70;;;;;;;;;;8503455;27;20054;-89
2023/12/04 23:55:10;;;;;;;40.65;14.50;;;;;;;;;;8505642;27;20478;-90
2023/12/04 23:59:15;;;;;;;29.88;13.77;;;;;;;;;;8503147;27;20061;-90
